createdAt,value
2023-01-06T00:01:18.578Z,50.29
2023-01-06T00:04:21.466Z,50.24
2023-01-06T00:07:24.337Z,50.30
2023-01-06T00:10:28.945Z,50.19
2023-01-06T00:13:31.783Z,50.23
2023-01-06T00:16:34.629Z,50.29
2023-01-06T00:19:37.539Z,50.29
2023-01-06T00:22:40.514Z,50.18
2023-01-06T00:25:51.516Z,50.19
2023-01-06T00:28:55.296Z,50.28
2023-01-06T00:32:00.152Z,50.29
2023-01-06T00:35:03.267Z,50.25
2023-01-06T00:38:06.556Z,50.16
2023-01-06T00:41:26.658Z,50.27
2023-01-06T00:44:29.615Z,50.28
2023-01-06T00:47:32.488Z,50.22
2023-01-06T00:50:35.395Z,50.24
2023-01-06T00:53:38.228Z,50.24
2023-01-06T00:56:44.079Z,50.24
2023-01-06T00:59:48.212Z,50.36
2023-01-06T01:02:51.122Z,50.33
2023-01-06T01:05:54.048Z,50.19
2023-01-06T01:08:58.723Z,50.32
2023-01-06T01:12:12.908Z,50.20
2023-01-06T01:15:15.981Z,50.21
2023-01-06T01:18:18.879Z,50.25
2023-01-06T01:21:21.840Z,50.31
2023-01-06T01:24:25.016Z,50.08
2023-01-06T01:27:29.227Z,50.17
2023-01-06T01:30:32.093Z,50.16
2023-01-06T01:33:34.947Z,50.18
2023-01-06T01:36:38.223Z,50.26
2023-01-06T01:39:41.614Z,50.22
2023-01-06T01:42:45.836Z,50.10
2023-01-06T01:45:51.405Z,50.14
2023-01-06T01:48:58.105Z,50.25
2023-01-06T01:52:01.219Z,50.30
2023-01-06T01:55:05.630Z,50.20
2023-01-06T01:58:12.771Z,50.04
2023-01-06T02:01:15.860Z,50.19
2023-01-06T02:04:21.932Z,50.09
2023-01-06T02:07:27.982Z,50.09
2023-01-06T02:10:30.868Z,50.12
2023-01-06T02:13:37.635Z,50.07
2023-01-06T02:16:54.919Z,50.09
2023-01-06T02:20:20.005Z,50.24
2023-01-06T02:23:49.533Z,49.99
2023-01-06T02:27:34.702Z,50.30
2023-01-06T02:31:06.239Z,50.13
2023-01-06T02:34:23.005Z,50.36
2023-01-06T02:37:38.727Z,50.20
2023-01-06T02:40:56.354Z,50.16
2023-01-06T02:44:04.439Z,50.24
2023-01-06T02:47:15.181Z,50.19
2023-01-06T02:50:25.328Z,50.02
2023-01-06T02:53:35.153Z,50.07
2023-01-06T02:56:45.860Z,50.06
2023-01-06T02:59:56.034Z,50.27
2023-01-06T03:03:04.290Z,50.28
2023-01-06T03:06:11.440Z,50.24
2023-01-06T03:09:16.816Z,49.96
2023-01-06T03:12:33.251Z,50.16
2023-01-06T03:15:36.469Z,50.19
2023-01-06T03:18:41.778Z,50.12
2023-01-06T03:21:49.083Z,50.23
2023-01-06T03:24:55.908Z,50.20
2023-01-06T03:28:00.490Z,50.13
2023-01-06T03:31:16.179Z,50.13
2023-01-06T03:34:25.217Z,50.04
2023-01-06T03:37:38.442Z,50.14
2023-01-06T03:40:45.179Z,50.09
2023-01-06T03:43:59.034Z,50.15
2023-01-06T03:47:08.708Z,50.24
2023-01-06T03:50:18.408Z,50.07
2023-01-06T03:53:34.395Z,50.06
2023-01-06T03:56:43.658Z,50.20
2023-01-06T03:59:50.712Z,50.16
2023-01-06T04:02:54.368Z,50.16
2023-01-06T04:06:00.186Z,49.96
2023-01-06T04:09:05.470Z,50.17
2023-01-06T04:12:28.915Z,50.10
2023-01-06T04:15:32.624Z,50.17
2023-01-06T04:18:36.900Z,50.28
2023-01-06T04:21:39.891Z,50.31
2023-01-06T04:24:44.439Z,50.20
2023-01-06T04:27:47.415Z,50.09
2023-01-06T04:30:50.905Z,50.20
2023-01-06T04:33:54.083Z,50.23
2023-01-06T04:36:57.132Z,50.24
2023-01-06T04:40:01.335Z,50.17
2023-01-06T04:43:06.846Z,50.17
2023-01-06T04:46:10.026Z,50.07
2023-01-06T04:49:12.925Z,50.07
2023-01-06T04:52:17.366Z,50.24
2023-01-06T04:55:21.667Z,50.23
2023-01-06T04:58:24.553Z,50.28
2023-01-06T05:01:28.308Z,50.30
2023-01-06T05:04:40.043Z,50.21
2023-01-06T05:07:49.702Z,50.29
2023-01-06T05:11:00.351Z,50.28
2023-01-06T05:14:03.187Z,50.29
2023-01-06T05:17:06.056Z,50.24
2023-01-06T05:20:09.834Z,50.14
2023-01-06T05:23:12.646Z,50.19
2023-01-06T05:26:19.788Z,50.28
2023-01-06T05:29:22.657Z,50.11
2023-01-06T05:32:25.498Z,50.18
2023-01-06T05:35:28.986Z,50.22
2023-01-06T05:38:34.351Z,50.30
2023-01-06T05:41:38.618Z,50.30
2023-01-06T05:44:41.435Z,50.20
2023-01-06T05:47:44.325Z,50.20
2023-01-06T05:50:47.192Z,50.25
2023-01-06T05:53:50.103Z,50.21
2023-01-06T05:56:54.264Z,50.15
2023-01-06T05:59:57.084Z,50.10
2023-01-06T06:02:59.897Z,50.18
2023-01-06T06:06:07.708Z,50.31
2023-01-06T06:09:10.837Z,50.17
2023-01-06T06:12:15.239Z,50.21
2023-01-06T06:15:18.079Z,50.23
2023-01-06T06:18:20.930Z,50.23
2023-01-06T06:21:25.404Z,50.22
2023-01-06T06:24:28.269Z,50.31
2023-01-06T06:27:32.473Z,50.16
2023-01-06T06:30:35.494Z,50.26
2023-01-06T06:33:38.918Z,50.00
2023-01-06T06:36:41.775Z,50.27
2023-01-06T06:39:44.569Z,50.06
2023-01-06T06:42:53.450Z,50.10
2023-01-06T06:45:56.546Z,50.16
2023-01-06T06:48:59.585Z,50.29
2023-01-06T06:52:02.412Z,50.18
2023-01-06T06:55:06.243Z,50.27
2023-01-06T06:58:10.607Z,50.07
2023-01-06T07:01:16.012Z,50.14
2023-01-06T07:04:18.964Z,50.03
2023-01-06T07:07:21.978Z,50.26
2023-01-06T07:10:24.899Z,50.17
2023-01-06T07:13:29.175Z,50.21
2023-01-06T07:16:32.200Z,50.23
2023-01-06T07:19:35.198Z,50.30
2023-01-06T07:22:39.781Z,50.17
2023-01-06T07:25:42.667Z,50.18
2023-01-06T07:28:46.862Z,50.18
2023-01-06T07:31:49.720Z,50.23
2023-01-06T07:34:52.728Z,50.22
2023-01-06T07:37:58.212Z,50.20
2023-01-06T07:41:02.013Z,50.10
2023-01-06T07:44:09.454Z,50.28
2023-01-06T07:47:16.012Z,50.15
2023-01-06T07:50:20.397Z,50.15
2023-01-06T07:53:24.004Z,50.06
2023-01-06T07:56:26.916Z,50.15
2023-01-06T07:59:31.115Z,50.18
2023-01-06T08:02:34.026Z,50.20
2023-01-06T08:05:38.578Z,50.15
2023-01-06T08:08:42.418Z,50.27
2023-01-06T08:11:45.264Z,50.24
2023-01-06T08:14:49.487Z,50.20
2023-01-06T08:17:53.588Z,50.08
2023-01-06T08:21:01.041Z,50.21
2023-01-06T08:24:05.230Z,50.23
2023-01-06T08:27:08.036Z,50.11
2023-01-06T08:30:13.178Z,50.18
2023-01-06T08:33:16.090Z,50.24
2023-01-06T08:36:20.737Z,50.20
2023-01-06T08:39:23.669Z,50.21
2023-01-06T08:42:26.481Z,50.16
2023-01-06T08:45:30.723Z,50.05
2023-01-06T08:48:35.230Z,50.09
2023-01-06T08:51:38.186Z,50.23
2023-01-06T08:54:41.092Z,50.18
2023-01-06T08:57:44.014Z,50.17
2023-01-06T09:00:48.334Z,50.31
2023-01-06T09:03:51.221Z,50.28
2023-01-06T09:06:54.959Z,50.21
2023-01-06T09:09:58.177Z,50.06
2023-01-06T09:13:01.053Z,50.11
2023-01-06T09:16:08.308Z,50.22
2023-01-06T09:19:11.359Z,50.13
2023-01-06T09:22:14.231Z,50.21
2023-01-06T09:25:18.228Z,50.42
2023-01-06T09:28:21.103Z,50.22
2023-01-06T09:31:26.722Z,50.21
2023-01-06T09:34:29.627Z,50.16
2023-01-06T09:37:32.476Z,50.19
2023-01-06T09:40:44.681Z,50.21
2023-01-06T09:43:52.878Z,50.03
2023-01-06T09:46:59.650Z,50.08
2023-01-06T09:50:09.258Z,50.25
2023-01-06T09:53:17.301Z,50.20
2023-01-06T09:56:20.920Z,50.12
2023-01-06T09:59:29.557Z,50.31
2023-01-06T10:02:38.469Z,50.06
2023-01-06T10:05:49.705Z,50.24
2023-01-06T10:09:01.884Z,50.23
2023-01-06T10:12:14.486Z,50.19
2023-01-06T10:15:27.762Z,50.27
2023-01-06T10:18:41.377Z,50.13
2023-01-06T10:21:49.099Z,50.23
2023-01-06T10:24:58.248Z,50.28
2023-01-06T10:28:09.775Z,50.09
2023-01-06T10:31:16.260Z,50.33
2023-01-06T10:34:23.375Z,50.23
2023-01-06T10:37:31.200Z,50.16
2023-01-06T10:40:36.339Z,50.16
2023-01-06T10:43:39.310Z,50.23
2023-01-06T10:46:45.323Z,50.16
2023-01-06T10:49:49.794Z,50.33
2023-01-06T10:52:52.787Z,50.13
2023-01-06T10:55:57.377Z,50.18
2023-01-06T10:59:07.058Z,50.21
2023-01-06T11:02:23.772Z,50.16
2023-01-06T11:05:30.957Z,50.23
2023-01-06T11:08:35.072Z,50.06
2023-01-06T11:11:49.096Z,50.22
2023-01-06T11:14:56.827Z,50.22
2023-01-06T11:17:59.731Z,50.34
2023-01-06T11:21:10.971Z,50.15
2023-01-06T11:24:19.883Z,50.37
2023-01-06T11:27:22.909Z,50.32
2023-01-06T11:30:28.935Z,50.30
2023-01-06T11:33:35.227Z,50.22
2023-01-06T11:36:47.186Z,50.24
2023-01-06T11:39:55.830Z,50.29
2023-01-06T11:43:15.380Z,50.21
2023-01-06T11:46:25.502Z,50.24
2023-01-06T11:49:31.051Z,50.29
2023-01-06T11:52:36.583Z,50.40
2023-01-06T11:55:39.862Z,50.38
2023-01-06T11:58:55.142Z,50.15
2023-01-06T12:02:00.469Z,50.40
2023-01-06T12:05:06.886Z,50.40
2023-01-06T12:08:16.179Z,50.20
2023-01-06T12:11:24.679Z,50.32
2023-01-06T12:14:31.579Z,50.22
2023-01-06T12:17:43.241Z,50.28
2023-01-06T12:20:49.098Z,50.22
2023-01-06T12:23:55.203Z,50.27
2023-01-06T12:26:58.659Z,50.42
2023-01-06T12:30:04.871Z,50.32
2023-01-06T12:33:17.896Z,50.31
2023-01-06T12:36:31.072Z,50.27
2023-01-06T12:39:45.636Z,50.42
2023-01-06T12:43:00.885Z,50.22
2023-01-06T12:46:08.344Z,50.43
2023-01-06T12:49:21.866Z,50.33
2023-01-06T12:52:29.452Z,50.35
2023-01-06T12:55:42.664Z,50.22
2023-01-06T12:58:53.517Z,50.26
2023-01-06T13:02:01.673Z,50.32
2023-01-06T13:05:25.566Z,50.27
2023-01-06T13:08:45.262Z,50.34
2023-01-06T13:12:14.246Z,50.40
2023-01-06T13:15:22.976Z,50.23
2023-01-06T13:18:31.746Z,50.38
2023-01-06T13:21:37.563Z,50.31
2023-01-06T13:24:57.155Z,50.35
2023-01-06T13:28:09.515Z,50.54
2023-01-06T13:31:46.299Z,50.40
2023-01-06T13:35:11.780Z,50.31
2023-01-06T13:38:29.574Z,50.29
2023-01-06T13:41:37.229Z,50.43
2023-01-06T13:44:42.507Z,50.26
2023-01-06T13:47:47.027Z,50.48
2023-01-06T13:50:51.582Z,50.36
2023-01-06T13:53:54.877Z,50.36
2023-01-06T13:57:31.094Z,50.29
2023-01-06T14:00:35.409Z,50.49
2023-01-06T14:03:39.662Z,50.29
2023-01-06T14:06:46.923Z,50.37
2023-01-06T14:09:51.166Z,50.22
2023-01-06T14:12:54.627Z,50.28
2023-01-06T14:16:02.284Z,50.38
2023-01-06T14:19:08.065Z,50.43
2023-01-06T14:22:16.474Z,50.45
2023-01-06T14:25:24.442Z,50.28
2023-01-06T14:28:30.849Z,50.37
2023-01-06T14:31:43.709Z,50.29
2023-01-06T14:34:52.834Z,50.45
2023-01-06T14:38:00.935Z,50.29
2023-01-06T14:41:06.524Z,50.49
2023-01-06T14:44:16.518Z,50.38
2023-01-06T14:47:27.358Z,50.25
2023-01-06T14:50:46.020Z,50.37
2023-01-06T14:53:58.493Z,50.42
2023-01-06T14:57:03.570Z,50.34
2023-01-06T15:00:09.638Z,50.31
2023-01-06T15:03:23.387Z,50.39
2023-01-06T15:06:29.699Z,50.44
2023-01-06T15:09:35.619Z,50.50
2023-01-06T15:12:55.996Z,50.43
2023-01-06T15:16:05.851Z,50.43
2023-01-06T15:19:14.355Z,50.40
2023-01-06T15:22:21.640Z,50.44
2023-01-06T15:25:27.192Z,50.53
2023-01-06T15:28:32.757Z,50.42
2023-01-06T15:31:38.320Z,50.52
2023-01-06T15:34:45.833Z,50.24
2023-01-06T15:37:59.649Z,50.52
2023-01-06T15:41:03.574Z,50.49
2023-01-06T15:44:22.793Z,50.48
2023-01-06T15:47:38.283Z,50.57
2023-01-06T15:50:45.838Z,50.39
2023-01-06T15:53:55.075Z,50.34
2023-01-06T15:57:15.247Z,50.50
2023-01-06T16:00:23.137Z,50.37
2023-01-06T16:03:28.880Z,50.36
2023-01-06T16:06:34.687Z,50.44
2023-01-06T16:09:37.916Z,50.46
2023-01-06T16:12:41.346Z,50.42
2023-01-06T16:15:49.574Z,50.53
2023-01-06T16:18:53.019Z,50.51
2023-01-06T16:21:57.493Z,50.60
2023-01-06T16:25:02.715Z,50.36
2023-01-06T16:28:06.950Z,50.54
2023-01-06T16:31:12.892Z,50.52
2023-01-06T16:34:17.497Z,50.53
2023-01-06T16:37:22.170Z,50.55
2023-01-06T16:40:27.176Z,50.49
2023-01-06T16:43:30.067Z,50.38
2023-01-06T16:46:33.034Z,50.53
2023-01-06T16:49:39.741Z,50.44
2023-01-06T16:52:46.623Z,50.53
2023-01-06T16:55:53.310Z,50.47
2023-01-06T16:58:57.188Z,50.49
2023-01-06T17:02:00.132Z,50.66
2023-01-06T17:05:05.093Z,50.57
2023-01-06T17:08:14.313Z,50.43
2023-01-06T17:11:18.808Z,50.49
2023-01-06T17:14:23.793Z,50.43
2023-01-06T17:17:26.650Z,50.50
2023-01-06T17:20:31.869Z,50.54
2023-01-06T17:23:43.426Z,50.55
2023-01-06T17:26:50.829Z,50.53
2023-01-06T17:29:54.874Z,50.67
2023-01-06T17:32:57.732Z,50.45
2023-01-06T17:36:02.934Z,50.57
2023-01-06T17:39:18.047Z,50.58
2023-01-06T17:42:28.395Z,50.51
2023-01-06T17:45:31.325Z,50.50
2023-01-06T17:48:34.639Z,50.44
2023-01-06T17:51:39.667Z,50.60
2023-01-06T17:55:08.282Z,50.52
2023-01-06T17:58:15.211Z,50.64
2023-01-06T18:01:23.387Z,50.50
2023-01-06T18:04:27.295Z,50.64
2023-01-06T18:07:31.807Z,50.44
2023-01-06T18:10:37.984Z,50.54
2023-01-06T18:13:42.970Z,50.50
2023-01-06T18:16:47.265Z,50.45
2023-01-06T18:19:50.156Z,50.53
2023-01-06T18:22:53.196Z,50.56
2023-01-06T18:26:01.034Z,50.63
2023-01-06T18:29:13.855Z,50.58
2023-01-06T18:32:25.521Z,50.58
2023-01-06T18:35:28.866Z,50.65
2023-01-06T18:38:31.764Z,50.49
2023-01-06T18:41:36.045Z,50.46
2023-01-06T18:44:38.902Z,50.54
2023-01-06T18:47:44.066Z,50.43
2023-01-06T18:50:49.742Z,50.58
2023-01-06T18:53:53.767Z,50.62
2023-01-06T18:56:57.969Z,50.53
2023-01-06T19:00:24.511Z,50.58
2023-01-06T19:03:37.615Z,50.53
2023-01-06T19:06:42.876Z,50.55
2023-01-06T19:09:48.441Z,50.46
2023-01-06T19:12:55.949Z,50.61
2023-01-06T19:16:20.962Z,50.53
2023-01-06T19:19:27.551Z,50.56
2023-01-06T19:22:34.230Z,50.51
2023-01-06T19:25:40.555Z,50.56
2023-01-06T19:28:49.127Z,50.56
2023-01-06T19:31:55.951Z,50.65
2023-01-06T19:34:59.282Z,50.66
2023-01-06T19:38:07.128Z,50.52
2023-01-06T19:41:17.099Z,50.63
2023-01-06T19:44:26.753Z,50.49
2023-01-06T19:47:35.707Z,50.59
2023-01-06T19:50:38.512Z,50.53
2023-01-06T19:53:44.601Z,50.59
2023-01-06T19:56:49.697Z,50.57
2023-01-06T19:59:55.026Z,50.49
2023-01-06T20:03:01.750Z,50.61
2023-01-06T20:06:05.446Z,50.51
2023-01-06T20:09:08.299Z,50.66
2023-01-06T20:12:12.246Z,50.65
2023-01-06T20:15:17.218Z,50.53
2023-01-06T20:18:20.095Z,50.50
2023-01-06T20:21:22.925Z,50.59
2023-01-06T20:24:25.783Z,50.56
2023-01-06T20:27:28.624Z,50.68
2023-01-06T20:30:32.815Z,50.58
2023-01-06T20:33:35.743Z,50.56
2023-01-06T20:36:38.590Z,50.45
2023-01-06T20:39:41.491Z,50.67
2023-01-06T20:42:44.309Z,50.50
2023-01-06T20:45:48.566Z,50.50
2023-01-06T20:48:51.372Z,50.64
2023-01-06T20:51:54.173Z,50.55
2023-01-06T20:54:56.950Z,50.54
2023-01-06T20:57:59.817Z,50.61
2023-01-06T21:01:04.108Z,50.61
2023-01-06T21:04:06.977Z,50.63
2023-01-06T21:07:10.061Z,50.43
2023-01-06T21:10:12.899Z,50.56
2023-01-06T21:13:16.211Z,50.40
2023-01-06T21:16:21.650Z,50.64
2023-01-06T21:19:24.582Z,50.52
2023-01-06T21:22:27.490Z,50.55
2023-01-06T21:25:31.006Z,50.48
2023-01-06T21:28:33.974Z,50.58
2023-01-06T21:31:38.176Z,50.69
2023-01-06T21:34:41.000Z,50.45
2023-01-06T21:37:43.802Z,50.39
2023-01-06T21:40:46.615Z,50.48
2023-01-06T21:43:48.458Z,50.54
2023-01-06T21:46:52.716Z,50.60
2023-01-06T21:49:55.523Z,50.66
2023-01-06T21:52:58.527Z,50.64
2023-01-06T21:56:01.410Z,50.51
2023-01-06T21:59:04.428Z,50.52
2023-01-06T22:02:09.491Z,50.55
2023-01-06T22:05:12.717Z,50.66
2023-01-06T22:08:15.576Z,50.77
2023-01-06T22:11:18.769Z,50.66
2023-01-06T22:14:22.216Z,50.58
2023-01-06T22:17:26.860Z,50.63
2023-01-06T22:20:32.225Z,50.39
2023-01-06T22:23:36.672Z,50.51
2023-01-06T22:26:39.433Z,50.45
2023-01-06T22:29:42.287Z,50.46
2023-01-06T22:32:47.639Z,50.65
2023-01-06T22:35:50.412Z,50.63
2023-01-06T22:38:53.333Z,50.63
2023-01-06T22:41:56.268Z,50.66
2023-01-06T22:44:59.035Z,50.59
2023-01-06T22:48:04.181Z,50.66
2023-01-06T22:51:07.665Z,50.53
2023-01-06T22:54:10.773Z,50.57
2023-01-06T22:57:13.635Z,50.59
2023-01-06T23:00:18.905Z,50.54
2023-01-06T23:03:24.052Z,50.42
2023-01-06T23:06:26.803Z,50.52
2023-01-06T23:09:29.787Z,50.63
2023-01-06T23:12:32.566Z,50.58
2023-01-06T23:15:35.341Z,50.56
2023-01-06T23:18:41.639Z,50.68
2023-01-06T23:21:45.555Z,50.46
2023-01-06T23:24:48.322Z,50.68
2023-01-06T23:27:51.168Z,50.57
2023-01-06T23:30:54.097Z,50.58
2023-01-06T23:34:00.224Z,50.45
2023-01-06T23:37:03.061Z,50.58
2023-01-06T23:40:06.664Z,50.56
2023-01-06T23:43:09.563Z,50.58
2023-01-06T23:46:14.166Z,50.64
2023-01-06T23:49:18.702Z,50.61
2023-01-06T23:52:21.583Z,50.62
2023-01-06T23:55:24.464Z,50.61
2023-01-06T23:58:28.475Z,50.59
